createdAt,value
2022-10-17T00:01:08.670Z,9.65
2022-10-17T00:03:38.334Z,9.65
2022-10-17T00:06:12.263Z,9.64
2022-10-17T00:08:41.579Z,9.68
2022-10-17T00:11:20.297Z,9.66
2022-10-17T00:13:51.460Z,9.64
2022-10-17T00:16:33.882Z,9.60
2022-10-17T00:19:01.664Z,9.63
2022-10-17T00:21:29.472Z,9.60
2022-10-17T00:23:57.306Z,9.62
2022-10-17T00:26:25.098Z,9.60
2022-10-17T00:28:53.560Z,9.60
2022-10-17T00:31:24.020Z,9.61
2022-10-17T00:33:52.861Z,9.59
2022-10-17T00:36:26.729Z,9.54
2022-10-17T00:38:59.236Z,9.54
2022-10-17T00:41:33.816Z,9.51
2022-10-17T00:44:06.339Z,9.47
2022-10-17T00:46:39.333Z,9.44
2022-10-17T00:49:12.778Z,9.44
2022-10-17T00:52:11.875Z,9.36
2022-10-17T00:54:58.237Z,9.38
2022-10-17T00:57:29.494Z,9.41
2022-10-17T01:00:00.372Z,9.37
2022-10-17T01:02:28.799Z,9.31
2022-10-17T01:04:59.618Z,9.26
2022-10-17T01:07:33.157Z,9.22
2022-10-17T01:10:06.568Z,9.23
2022-10-17T01:12:56.930Z,9.19
2022-10-17T01:15:38.334Z,9.17
2022-10-17T01:18:19.941Z,9.11
2022-10-17T01:21:06.269Z,9.05
2022-10-17T01:24:00.382Z,8.93
2022-10-17T01:27:08.080Z,8.93
2022-10-17T01:30:13.760Z,8.91
2022-10-17T01:32:54.051Z,8.91
2022-10-17T01:35:44.873Z,8.92
2022-10-17T01:38:39.957Z,8.92
2022-10-17T01:41:36.279Z,8.91
2022-10-17T01:44:18.241Z,8.93
2022-10-17T01:47:05.577Z,8.93
2022-10-17T01:49:37.700Z,8.92
2022-10-17T01:52:24.791Z,8.89
2022-10-17T01:55:18.437Z,8.85
2022-10-17T01:58:01.218Z,8.81
2022-10-17T02:00:32.503Z,8.73
2022-10-17T02:03:06.416Z,8.70
2022-10-17T02:05:40.588Z,8.65
2022-10-17T02:08:08.776Z,8.63
2022-10-17T02:16:58.546Z,8.65
2022-10-17T02:19:46.703Z,8.59
2022-10-17T02:22:54.130Z,8.61
2022-10-17T02:25:45.977Z,8.62
2022-10-17T02:28:29.264Z,8.63
2022-10-17T02:31:29.287Z,8.64
2022-10-17T02:34:13.444Z,8.60
2022-10-17T02:36:51.273Z,8.60
2022-10-17T02:39:23.434Z,8.50
2022-10-17T02:41:55.300Z,8.51
2022-10-17T02:44:24.516Z,8.51
2022-10-17T02:47:18.398Z,8.55
2022-10-17T02:49:52.659Z,8.55
2022-10-17T02:52:38.510Z,8.52
2022-10-17T02:55:48.407Z,8.55
2022-10-17T02:58:23.940Z,8.45
2022-10-17T03:00:52.943Z,8.38
2022-10-17T03:03:30.875Z,8.35
2022-10-17T03:06:02.268Z,8.30
2022-10-17T03:08:30.430Z,8.18
2022-10-17T03:10:58.277Z,8.20
2022-10-17T03:13:30.635Z,8.20
2022-10-17T03:15:58.883Z,8.16
2022-10-17T03:18:26.735Z,8.15
2022-10-17T03:20:59.114Z,8.15
2022-10-17T03:23:26.989Z,8.11
2022-10-17T03:25:54.777Z,8.15
2022-10-17T03:28:23.486Z,8.15
2022-10-17T03:30:51.229Z,8.16
2022-10-17T03:33:19.114Z,8.11
2022-10-17T03:35:47.008Z,8.06
2022-10-17T03:38:14.994Z,8.05
2022-10-17T03:40:42.787Z,8.04
2022-10-17T03:43:11.958Z,8.03
2022-10-17T03:45:41.445Z,8.04
2022-10-17T03:48:09.297Z,8.06
2022-10-17T03:50:36.989Z,8.07
2022-10-17T03:53:04.842Z,8.05
2022-10-17T03:55:32.544Z,8.01
2022-10-17T03:58:00.307Z,7.99
2022-10-17T04:00:28.754Z,7.99
2022-10-17T04:02:59.275Z,7.99
2022-10-17T04:05:27.849Z,7.99
2022-10-17T04:07:58.761Z,7.94
2022-10-17T04:10:48.599Z,7.90
2022-10-17T04:13:16.337Z,7.90
2022-10-17T04:16:08.462Z,7.90
2022-10-17T04:18:42.483Z,7.87
2022-10-17T04:21:12.503Z,7.85
2022-10-17T04:23:41.011Z,7.81
2022-10-17T04:26:19.949Z,7.85
2022-10-17T04:28:47.734Z,7.83
2022-10-17T04:31:16.568Z,7.83
2022-10-17T04:34:04.201Z,7.83
2022-10-17T04:36:32.339Z,7.79
2022-10-17T04:39:05.951Z,7.78
2022-10-17T04:41:34.158Z,7.76
2022-10-17T04:44:03.051Z,7.77
2022-10-17T04:46:35.053Z,7.75
2022-10-17T04:49:03.567Z,7.77
2022-10-17T04:51:31.658Z,7.69
2022-10-17T04:54:19.710Z,7.61
2022-10-17T04:56:51.664Z,7.62
2022-10-17T04:59:19.566Z,7.62
2022-10-17T05:01:50.306Z,7.61
2022-10-17T05:04:22.353Z,7.59
2022-10-17T05:06:54.118Z,7.57
2022-10-17T05:09:40.767Z,7.57
2022-10-17T05:12:10.392Z,7.50
2022-10-17T05:14:41.504Z,7.50
2022-10-17T05:17:09.236Z,7.42
2022-10-17T05:19:38.092Z,7.40
2022-10-17T05:22:07.549Z,7.38
2022-10-17T05:24:35.283Z,7.30
2022-10-17T05:27:03.194Z,7.31
2022-10-17T05:29:31.309Z,7.28
2022-10-17T05:32:07.492Z,7.26
2022-10-17T05:34:36.135Z,7.28
2022-10-17T05:37:03.904Z,7.31
2022-10-17T05:39:33.466Z,7.30
2022-10-17T05:42:01.332Z,7.32
2022-10-17T05:44:29.651Z,7.31
2022-10-17T05:47:00.324Z,7.35
2022-10-17T05:49:45.040Z,7.46
2022-10-17T05:52:17.526Z,7.55
2022-10-17T05:54:57.203Z,7.67
2022-10-17T05:57:26.652Z,7.70
2022-10-17T05:59:54.887Z,7.74
2022-10-17T06:02:23.039Z,7.78
2022-10-17T06:04:51.110Z,7.88
2022-10-17T06:07:21.290Z,7.98
2022-10-17T06:09:49.932Z,8.05
2022-10-17T06:12:17.899Z,8.16
2022-10-17T06:14:46.644Z,8.26
2022-10-17T06:17:16.352Z,8.38
2022-10-17T06:19:45.292Z,8.48
2022-10-17T06:22:15.488Z,8.56
2022-10-17T06:24:47.083Z,8.64
2022-10-17T06:27:15.617Z,8.72
2022-10-17T06:29:43.298Z,8.83
2022-10-17T06:32:14.949Z,8.93
2022-10-17T06:34:45.920Z,9.06
2022-10-17T06:37:13.730Z,9.16
2022-10-17T06:39:42.895Z,9.27
2022-10-17T06:42:17.013Z,9.36
2022-10-17T06:44:48.691Z,9.42
2022-10-17T06:47:36.069Z,9.55
2022-10-17T06:50:13.289Z,9.68
2022-10-17T06:52:52.294Z,9.85
2022-10-17T08:18:13.864Z,14.45
2022-10-17T08:20:42.677Z,14.83
2022-10-17T08:23:10.682Z,15.25
2022-10-17T08:25:39.974Z,15.58
2022-10-17T08:30:40.454Z,16.17
2022-10-17T08:33:08.159Z,16.44
2022-10-17T08:35:36.174Z,16.63
2022-10-17T08:38:04.477Z,16.86
2022-10-17T08:40:33.894Z,17.05
2022-10-17T08:43:12.296Z,17.22
2022-10-17T08:46:02.922Z,17.48
2022-10-17T08:48:42.729Z,17.73
2022-10-17T08:51:26.118Z,17.97
2022-10-17T08:54:44.271Z,18.22
2022-10-17T08:57:17.456Z,18.39
2022-10-17T08:59:52.090Z,18.58
2022-10-17T09:02:52.182Z,18.79
2022-10-17T09:05:32.735Z,18.91
2022-10-17T09:08:05.401Z,19.08
2022-10-17T09:10:49.480Z,19.22
2022-10-17T09:13:41.413Z,19.29
2022-10-17T09:16:45.034Z,19.38
2022-10-17T09:19:43.077Z,19.48
2022-10-17T09:22:23.088Z,19.60
2022-10-17T09:24:55.974Z,19.76
2022-10-17T09:28:03.646Z,19.95
2022-10-17T09:30:56.854Z,20.21
2022-10-17T09:33:56.633Z,20.21
2022-10-17T09:36:36.060Z,20.22
2022-10-17T09:39:24.778Z,20.34
2022-10-17T09:41:56.991Z,20.40
2022-10-17T09:44:57.551Z,20.43
2022-10-17T09:47:45.927Z,20.51
2022-10-17T09:50:32.732Z,20.54
2022-10-17T09:53:15.106Z,20.62
2022-10-17T09:55:56.171Z,20.64
2022-10-17T09:58:24.649Z,20.68
2022-10-17T10:00:52.349Z,20.64
2022-10-17T10:03:25.124Z,20.62
2022-10-17T10:06:18.247Z,20.57
2022-10-17T10:08:58.807Z,20.35
2022-10-17T10:11:51.312Z,20.42
2022-10-17T10:14:37.717Z,20.48
2022-10-17T10:17:25.740Z,20.56
2022-10-17T10:19:54.242Z,20.62
2022-10-17T10:22:23.935Z,20.63
2022-10-17T10:25:17.637Z,20.58
2022-10-17T10:27:47.794Z,20.57
2022-10-17T10:30:21.279Z,20.54
2022-10-17T10:35:37.674Z,20.65
2022-10-17T10:38:16.622Z,20.69
2022-10-17T10:40:52.490Z,20.72
2022-10-17T10:43:29.928Z,20.77
2022-10-17T10:45:58.440Z,20.83
2022-10-17T10:48:32.611Z,20.84
2022-10-17T10:51:14.395Z,20.88
2022-10-17T10:53:54.635Z,20.88
2022-10-17T10:56:37.401Z,20.89
2022-10-17T10:59:37.249Z,20.90
2022-10-17T11:02:26.767Z,20.90
2022-10-17T11:05:20.667Z,20.90
2022-10-17T11:08:12.080Z,20.91
2022-10-17T11:11:27.798Z,20.93
2022-10-17T11:14:03.731Z,20.91
2022-10-17T11:16:42.038Z,20.94
2022-10-17T11:19:24.826Z,20.93
2022-10-17T11:22:26.642Z,21.03
2022-10-17T11:25:33.139Z,21.03
2022-10-17T11:28:10.776Z,21.08
2022-10-17T11:31:07.965Z,21.11
2022-10-17T11:33:58.940Z,21.14
2022-10-17T11:36:32.799Z,21.15
2022-10-17T11:39:08.930Z,21.15
2022-10-17T11:42:03.518Z,21.22
2022-10-17T11:44:41.394Z,21.23
2022-10-17T11:47:16.566Z,21.28
2022-10-17T11:49:52.239Z,21.35
2022-10-17T11:55:31.162Z,21.42
2022-10-17T11:58:26.780Z,21.44
2022-10-17T12:01:18.736Z,21.47
2022-10-17T12:04:34.181Z,21.51
2022-10-17T12:07:24.787Z,21.50
2022-10-17T12:10:35.932Z,21.47
2022-10-17T12:13:28.810Z,21.51
2022-10-17T12:16:18.259Z,21.53
2022-10-17T12:18:47.401Z,21.51
2022-10-17T12:21:15.585Z,21.54
2022-10-17T12:23:54.233Z,21.58
2022-10-17T12:26:31.206Z,21.62
2022-10-17T12:28:59.258Z,21.60
2022-10-17T12:31:33.665Z,21.62
2022-10-17T12:34:04.799Z,21.65
2022-10-17T12:36:32.391Z,21.69
2022-10-17T12:39:03.135Z,21.69
2022-10-17T12:41:39.703Z,21.70
2022-10-17T12:44:14.035Z,21.74
2022-10-17T12:46:52.771Z,21.76
2022-10-17T12:49:45.722Z,21.76
2022-10-17T12:52:29.651Z,21.78
2022-10-17T12:55:17.608Z,21.74
2022-10-17T12:57:50.759Z,21.77
2022-10-17T13:01:11.628Z,21.78
2022-10-17T13:03:47.734Z,21.77
2022-10-17T13:06:28.112Z,21.70
2022-10-17T13:09:05.573Z,21.75
2022-10-17T13:11:37.921Z,21.77
2022-10-17T13:14:15.298Z,21.79
2022-10-17T13:16:59.348Z,21.81
2022-10-17T13:19:42.063Z,21.87
2022-10-17T13:22:28.325Z,21.84
2022-10-17T13:25:09.879Z,21.80
2022-10-17T13:27:37.948Z,21.81
2022-10-17T13:30:29.357Z,21.87
2022-10-17T13:33:01.521Z,21.84
2022-10-17T13:35:58.872Z,21.84
2022-10-17T13:38:29.664Z,21.88
2022-10-17T13:41:02.034Z,21.84
2022-10-17T13:43:45.012Z,21.84
2022-10-17T13:46:37.970Z,21.90
2022-10-17T13:49:36.994Z,21.87
2022-10-17T13:52:07.747Z,21.85
2022-10-17T13:54:42.423Z,21.91
2022-10-17T13:57:29.130Z,21.90
2022-10-17T14:00:23.603Z,21.84
2022-10-17T14:02:51.334Z,21.87
2022-10-17T14:05:23.395Z,21.90
2022-10-17T14:10:44.436Z,21.91
2022-10-17T14:13:24.672Z,21.78
2022-10-17T14:15:55.318Z,21.80
2022-10-17T14:18:36.389Z,21.82
2022-10-17T14:24:13.632Z,21.72
2022-10-17T14:27:00.665Z,21.77
2022-10-17T14:29:51.090Z,21.72
2022-10-17T14:32:20.267Z,21.70
2022-10-17T14:35:01.413Z,21.64
2022-10-17T14:37:41.390Z,21.55
2022-10-17T14:40:24.062Z,21.53
2022-10-17T14:42:55.333Z,21.57
2022-10-17T14:45:39.690Z,21.49
2022-10-17T14:48:15.289Z,21.49
2022-10-17T14:51:14.247Z,21.51
2022-10-17T14:54:01.651Z,21.47
2022-10-17T14:56:53.571Z,21.43
2022-10-17T14:59:48.526Z,21.36
2022-10-17T15:02:12.248Z,21.34
2022-10-17T15:04:39.859Z,21.30
2022-10-17T15:07:07.658Z,21.21
2022-10-17T15:09:35.378Z,21.24
2022-10-17T15:12:10.774Z,21.20
2022-10-17T15:14:38.420Z,21.17
2022-10-17T15:17:24.366Z,21.09
2022-10-17T15:19:52.344Z,20.99
2022-10-17T15:22:20.110Z,20.96
2022-10-17T15:24:48.406Z,20.95
2022-10-17T15:27:20.724Z,20.93
2022-10-17T15:29:49.942Z,20.85
2022-10-17T15:32:17.745Z,20.75
2022-10-17T15:34:45.547Z,20.62
2022-10-17T15:37:24.327Z,20.43
2022-10-17T15:39:55.254Z,20.25
2022-10-17T15:42:28.583Z,20.04
2022-10-17T15:44:57.231Z,19.84
2022-10-17T15:47:33.946Z,19.65
2022-10-17T15:50:03.199Z,19.45
2022-10-17T15:52:30.998Z,19.33
2022-10-17T15:55:00.994Z,19.21
2022-10-17T15:57:40.055Z,19.03
2022-10-17T16:00:22.265Z,18.89
2022-10-17T16:02:50.876Z,18.74
2022-10-17T16:05:25.642Z,18.59
2022-10-17T16:07:54.502Z,18.44
2022-10-17T16:10:23.576Z,18.36
2022-10-17T16:12:51.634Z,18.17
2022-10-17T16:15:28.603Z,18.02
2022-10-17T16:18:00.441Z,17.90
2022-10-17T16:20:31.818Z,17.70
2022-10-17T16:23:02.424Z,17.60
2022-10-17T16:25:32.115Z,17.49
2022-10-17T16:28:01.043Z,17.35
2022-10-17T16:30:31.866Z,17.20
2022-10-17T16:32:59.852Z,17.09
2022-10-17T16:35:33.354Z,16.94
2022-10-17T16:38:06.890Z,16.77
2022-10-17T16:40:38.964Z,16.58
2022-10-17T16:43:07.969Z,16.56
2022-10-17T16:45:36.622Z,16.45
2022-10-17T16:48:04.828Z,16.32
2022-10-17T16:50:35.665Z,16.26
2022-10-17T16:53:04.028Z,16.15
2022-10-17T16:55:31.768Z,16.08
2022-10-17T16:58:00.156Z,16.02
2022-10-17T17:00:28.017Z,15.91
2022-10-17T17:02:55.754Z,15.84
2022-10-17T17:05:23.557Z,15.77
2022-10-17T17:07:51.606Z,15.60
2022-10-17T17:10:19.381Z,15.59
2022-10-17T17:12:47.191Z,15.48
2022-10-17T17:15:14.966Z,15.43
2022-10-17T17:17:51.240Z,15.38
2022-10-17T17:20:21.150Z,15.30
2022-10-17T17:22:50.863Z,15.25
2022-10-17T17:25:18.661Z,15.17
2022-10-17T17:27:46.351Z,15.15
2022-10-17T17:30:14.187Z,15.08
2022-10-17T17:32:41.931Z,15.01
2022-10-17T17:35:10.092Z,14.94
2022-10-17T17:37:37.867Z,14.84
2022-10-17T17:40:06.567Z,14.71
2022-10-17T17:42:34.239Z,14.64
2022-10-17T17:45:02.062Z,14.60
2022-10-17T17:47:30.156Z,14.55
2022-10-17T17:49:58.133Z,14.47
2022-10-17T17:52:25.920Z,14.41
2022-10-17T17:54:53.742Z,14.35
2022-10-17T17:57:21.650Z,14.29
2022-10-17T17:59:50.164Z,14.22
2022-10-17T18:02:17.938Z,14.11
2022-10-17T18:04:45.754Z,14.07
2022-10-17T18:07:13.424Z,13.98
2022-10-17T18:09:41.312Z,13.95
2022-10-17T18:12:09.579Z,13.85
2022-10-17T18:14:37.537Z,13.75
2022-10-17T18:17:05.247Z,13.67
2022-10-17T18:19:32.963Z,13.63
2022-10-17T18:22:00.665Z,13.55
2022-10-17T18:24:28.399Z,13.50
2022-10-17T18:26:59.750Z,13.45
2022-10-17T18:29:29.569Z,13.36
2022-10-17T18:31:57.319Z,13.33
2022-10-17T18:34:27.245Z,13.27
2022-10-17T18:36:55.094Z,13.18
2022-10-17T18:39:23.048Z,13.09
2022-10-17T18:41:50.732Z,13.06
2022-10-17T18:44:18.443Z,13.02
2022-10-17T18:46:47.051Z,12.94
2022-10-17T18:49:20.404Z,12.87
2022-10-17T18:51:48.144Z,12.84
2022-10-17T18:54:21.273Z,12.80
2022-10-17T18:56:54.608Z,12.74
2022-10-17T18:59:22.892Z,12.73
2022-10-17T19:01:50.808Z,12.65
2022-10-17T19:04:18.615Z,12.64
2022-10-17T19:06:46.435Z,12.55
2022-10-17T19:09:15.829Z,12.52
2022-10-17T19:11:44.137Z,12.47
2022-10-17T19:14:13.581Z,12.41
2022-10-17T19:16:46.846Z,12.34
2022-10-17T19:19:19.930Z,12.28
2022-10-17T19:21:49.088Z,12.19
2022-10-17T19:24:26.073Z,12.17
2022-10-17T19:26:59.736Z,12.07
2022-10-17T19:29:31.392Z,11.98
2022-10-17T19:32:00.546Z,11.93
2022-10-17T19:34:28.350Z,11.89
2022-10-17T19:36:56.015Z,11.86
2022-10-17T19:39:25.177Z,11.85
2022-10-17T19:41:53.014Z,11.81
2022-10-17T19:44:20.806Z,11.75
2022-10-17T19:46:49.437Z,11.73
2022-10-17T19:49:18.114Z,11.69
2022-10-17T19:51:45.946Z,11.63
2022-10-17T19:54:15.201Z,11.61
2022-10-17T19:56:43.596Z,11.57
2022-10-17T19:59:14.653Z,11.44
2022-10-17T20:01:42.864Z,11.46
2022-10-17T20:04:12.414Z,11.41
2022-10-17T20:06:41.586Z,11.38
2022-10-17T20:09:14.053Z,11.29
2022-10-17T20:11:45.110Z,11.19
2022-10-17T20:14:12.843Z,11.14
2022-10-17T20:16:40.572Z,11.10
2022-10-17T20:19:12.245Z,11.04
2022-10-17T20:21:40.291Z,10.99
2022-10-17T20:24:13.459Z,10.93
2022-10-17T20:26:41.587Z,10.80
2022-10-17T20:29:16.836Z,10.73
2022-10-17T20:31:46.546Z,10.70
2022-10-17T20:34:18.026Z,10.65
2022-10-17T20:36:46.826Z,10.55
2022-10-17T20:39:18.066Z,10.53
2022-10-17T20:41:47.382Z,10.49
2022-10-17T20:44:16.128Z,10.41
2022-10-17T20:46:57.613Z,10.36
2022-10-17T20:49:30.914Z,10.36
2022-10-17T20:52:00.719Z,10.35
2022-10-17T20:54:28.732Z,10.27
2022-10-17T20:56:58.722Z,10.24
2022-10-17T20:59:28.823Z,10.21
2022-10-17T21:01:56.622Z,10.20
2022-10-17T21:07:11.931Z,10.00
2022-10-17T21:09:39.595Z,9.99
2022-10-17T21:12:07.437Z,9.97
2022-10-17T21:14:36.476Z,9.95
2022-10-17T21:17:05.511Z,9.90
2022-10-17T21:19:33.935Z,9.90
2022-10-17T21:22:01.847Z,9.85
2022-10-17T21:24:30.839Z,9.86
2022-10-17T21:26:59.403Z,9.82
2022-10-17T21:29:27.249Z,9.76
2022-10-17T21:31:55.006Z,9.71
2022-10-17T21:34:25.177Z,9.66
2022-10-17T21:36:53.441Z,9.61
2022-10-17T21:39:23.011Z,9.57
2022-10-17T21:41:51.647Z,9.54
2022-10-17T21:44:23.646Z,9.51
2022-10-17T21:46:52.441Z,9.49
2022-10-17T21:49:23.702Z,9.44
2022-10-17T21:51:53.591Z,9.40
2022-10-17T21:54:23.620Z,9.36
2022-10-17T21:56:52.448Z,9.31
2022-10-17T21:59:20.116Z,9.24
2022-10-17T22:01:47.939Z,9.17
2022-10-17T22:04:18.634Z,9.16
2022-10-17T22:06:51.225Z,9.06
2022-10-17T22:09:24.534Z,8.96
2022-10-17T22:11:56.775Z,8.96
2022-10-17T22:14:26.953Z,8.94
2022-10-17T22:16:55.584Z,8.94
2022-10-17T22:19:26.466Z,8.86
2022-10-17T22:21:55.150Z,8.85
2022-10-17T22:24:23.906Z,8.77
2022-10-17T22:26:51.923Z,8.75
2022-10-17T22:29:20.379Z,8.66
2022-10-17T22:31:48.149Z,8.62
2022-10-17T22:34:17.698Z,8.58
2022-10-17T22:36:47.737Z,8.51
2022-10-17T22:39:15.490Z,8.52
2022-10-17T22:41:43.206Z,8.47
2022-10-17T22:44:10.899Z,8.41
2022-10-17T22:46:38.906Z,8.43
2022-10-17T22:49:06.650Z,8.42
2022-10-17T22:51:34.443Z,8.34
2022-10-17T22:54:02.112Z,8.27
2022-10-17T22:56:29.895Z,8.23
2022-10-17T22:58:57.566Z,8.18
2022-10-17T23:01:26.391Z,8.13
2022-10-17T23:03:54.121Z,8.16
2022-10-17T23:06:22.726Z,8.13
2022-10-17T23:08:50.644Z,8.06
2022-10-17T23:11:18.414Z,8.00
2022-10-17T23:13:46.136Z,7.94
2022-10-17T23:16:13.911Z,7.89
2022-10-17T23:18:42.282Z,7.82
2022-10-17T23:21:10.531Z,7.79
2022-10-17T23:23:38.836Z,7.73
2022-10-17T23:26:10.781Z,7.72
2022-10-17T23:28:38.955Z,7.73
2022-10-17T23:31:19.768Z,7.78
2022-10-17T23:33:49.823Z,7.75
2022-10-17T23:36:20.556Z,7.72
2022-10-17T23:38:49.735Z,7.68
2022-10-17T23:41:18.377Z,7.62
2022-10-17T23:43:46.251Z,7.56
2022-10-17T23:46:13.992Z,7.50
2022-10-17T23:48:41.789Z,7.41
2022-10-17T23:51:11.176Z,7.29
2022-10-17T23:53:40.557Z,7.17
2022-10-17T23:56:10.445Z,7.17
2022-10-17T23:58:39.795Z,7.09
